PWSweather.com
Personal Weather Stations
Station Observations
ZL1DX1M
Mt. Roskill, Auckland, AK 1041

Mt. RoskillAuckland, AK 1041

Lat: -36.9, Lon: 174.74

Elevation: 54

Station Type:

http://www.sanctuaryweather.co.nz

Latest ConditionsUpdated 6:15:26 PM GMT+12 Wednesday, Nov 26, 2014
Currently Today's Max Today's Min Today's Average
Temperature 62.8°F17.1°C 70.5°F21.4°C 62.8°F17.1°C 65.7°F18.7°C
Dew Point 55.8°F13.2°C 65.8°F18.8°C 55.8°F13.2°C 61.3°F16.3°C
Winds 0.7 mph SW1.1 kmh SW 10.7 mph WSW17.2 kmh WSW - 3.3 mph 5.3 kmh
Wind Gusts 3.0 mph4.8 kmh 18.0 mph29.0 kmh - -
Humidity 78% 94% 67% 86%
Pressure 29.98 in1015.2 mb 30.03 in1016.9 mb 29.95 in1014.2 mb -
Hour Temp Dew Point Humidity Winds Wind Gusts Pressure Precip Precip Rate Daily Precip Total
06:15 PM 62.8°F17.1°C 55.8°F13.2°C 78% 0.7 mph SW1.1 kmh SW 3.0 mph4.8 kmh 29.98 in1015.2 mb 0.00 in0.0 mm 0.00 in/hr0.0 mm/hr 0.00 in0.0 mm
06:00 PM 63.3°F17.4°C 56.3°F13.5°C 78% 2.0 mph S3.2 kmh S 7.0 mph11.3 kmh 29.98 in1015.2 mb 0.00 in0.0 mm 0.00 in/hr0.0 mm/hr 0.00 in0.0 mm
05:45 PM 63.8°F17.7°C 56.4°F13.6°C 77% 1.8 mph S2.9 kmh S 7.0 mph11.3 kmh 29.97 in1014.9 mb 0.00 in0.0 mm 0.00 in/hr0.0 mm/hr 0.00 in0.0 mm
05:30 PM 64.3°F17.9°C 56.6°F13.7°C 76% 2.0 mph SE3.2 kmh SE 8.0 mph12.9 kmh 29.97 in1014.9 mb 0.00 in0.0 mm 0.00 in/hr0.0 mm/hr 0.00 in0.0 mm
05:15 PM 64.7°F18.2°C 56.2°F13.4°C 74% 3.6 mph SE5.8 kmh SE 8.0 mph12.9 kmh 29.96 in1014.6 mb 0.00 in0.0 mm 0.00 in/hr0.0 mm/hr 0.00 in0.0 mm
05:00 PM 65.7°F18.7°C 56.8°F13.8°C 73% 2.9 mph SE4.7 kmh SE 8.0 mph12.9 kmh 29.95 in1014.2 mb 0.00 in0.0 mm 0.00 in/hr0.0 mm/hr 0.00 in0.0 mm
04:45 PM 66.5°F19.2°C 57.6°F14.2°C 73% 4.6 mph SE7.4 kmh SE 7.0 mph11.3 kmh 29.95 in1014.2 mb 0.00 in0.0 mm 0.00 in/hr0.0 mm/hr 0.00 in0.0 mm
04:30 PM 68.0°F20.0°C 56.6°F13.7°C 67% 2.4 mph S3.9 kmh S 4.0 mph6.4 kmh 29.96 in1014.6 mb 0.00 in0.0 mm 0.00 in/hr0.0 mm/hr 0.00 in0.0 mm
04:15 PM 68.2°F20.1°C 57.2°F14.0°C 68% 1.7 mph SW2.7 kmh SW 5.0 mph8.0 kmh 29.96 in1014.6 mb 0.00 in0.0 mm 0.00 in/hr0.0 mm/hr 0.00 in0.0 mm
03:45 PM 68.0°F20.0°C 58.6°F14.8°C 72% 2.7 mph E4.3 kmh E 8.0 mph12.9 kmh 29.97 in1014.9 mb 0.00 in0.0 mm 0.00 in/hr0.0 mm/hr 0.00 in0.0 mm
03:15 PM 67.2°F19.6°C 58.6°F14.8°C 74% 2.3 mph S3.7 kmh S 5.0 mph8.0 kmh 29.97 in1014.9 mb 0.00 in0.0 mm 0.00 in/hr0.0 mm/hr 0.00 in0.0 mm
03:00 PM 66.5°F19.2°C 59.1°F15.1°C 77% 1.9 mph WSW3.1 kmh WSW 7.0 mph11.3 kmh 29.97 in1014.9 mb 0.00 in0.0 mm 0.00 in/hr0.0 mm/hr 0.00 in0.0 mm
02:45 PM 66.9°F19.4°C 59.8°F15.4°C 78% 1.6 mph E2.6 kmh E 3.0 mph4.8 kmh 29.97 in1014.9 mb 0.00 in0.0 mm 0.00 in/hr0.0 mm/hr 0.00 in0.0 mm
02:30 PM 66.9°F19.4°C 59.8°F15.4°C 78% 2.3 mph NE3.7 kmh NE 3.0 mph4.8 kmh 29.97 in1014.9 mb 0.00 in0.0 mm 0.00 in/hr0.0 mm/hr 0.00 in0.0 mm
02:15 PM 66.0°F18.9°C 59.3°F15.2°C 79% 2.7 mph E4.3 kmh E 7.0 mph11.3 kmh 29.97 in1014.9 mb 0.00 in0.0 mm 0.00 in/hr0.0 mm/hr 0.00 in0.0 mm
02:00 PM 65.4°F18.6°C 59.4°F15.2°C 81% 2.4 mph SW3.9 kmh SW 10.0 mph16.1 kmh 29.98 in1015.2 mb 0.00 in0.0 mm 0.00 in/hr0.0 mm/hr 0.00 in0.0 mm
01:45 PM 64.9°F18.3°C 58.9°F14.9°C 81% 1.0 mph S1.6 kmh S 4.0 mph6.4 kmh 29.98 in1015.2 mb 0.00 in0.0 mm 0.00 in/hr0.0 mm/hr 0.00 in0.0 mm
01:30 PM 65.6°F18.7°C 58.5°F14.7°C 78% 2.8 mph SSE4.5 kmh SSE 9.0 mph14.5 kmh 29.98 in1015.2 mb 0.00 in0.0 mm 0.00 in/hr0.0 mm/hr 0.00 in0.0 mm
01:15 PM 66.0°F18.9°C 59.7°F15.4°C 80% 3.7 mph SE6.0 kmh SE 8.0 mph12.9 kmh 29.97 in1014.9 mb 0.00 in0.0 mm 0.00 in/hr0.0 mm/hr 0.00 in0.0 mm
01:00 PM 65.9°F18.8°C 60.2°F15.7°C 82% 2.5 mph SE4.0 kmh SE 7.0 mph11.3 kmh 29.97 in1014.9 mb 0.00 in0.0 mm 0.00 in/hr0.0 mm/hr 0.00 in0.0 mm
12:45 PM 65.5°F18.6°C 60.5°F15.8°C 84% 5.3 mph ESE8.5 kmh ESE 9.0 mph14.5 kmh 29.97 in1014.9 mb 0.00 in0.0 mm 0.00 in/hr0.0 mm/hr 0.00 in0.0 mm
12:30 PM 65.0°F18.3°C 60.7°F15.9°C 86% 3.3 mph ESE5.3 kmh ESE 9.0 mph14.5 kmh 29.97 in1014.9 mb 0.00 in0.0 mm 0.00 in/hr0.0 mm/hr 0.00 in0.0 mm
12:15 PM 64.4°F18.0°C 60.7°F15.9°C 88% 5.1 mph ESE8.2 kmh ESE 12.0 mph19.3 kmh 29.97 in1014.9 mb 0.00 in0.0 mm 0.00 in/hr0.0 mm/hr 0.00 in0.0 mm
12:00 PM 69.3°F20.7°C 63.2°F17.3°C 81% 4.8 mph SSW7.7 kmh SSW 12.0 mph19.3 kmh 29.96 in1014.6 mb 0.00 in0.0 mm 0.00 in/hr0.0 mm/hr 0.00 in0.0 mm
11:45 AM 70.5°F21.4°C 65.8°F18.8°C 85% 7.7 mph SW12.4 kmh SW 11.0 mph17.7 kmh 29.95 in1014.2 mb 0.00 in0.0 mm 0.00 in/hr0.0 mm/hr 0.00 in0.0 mm
11:30 AM 69.8°F21.0°C 65.7°F18.7°C 87% 9.3 mph WSW15.0 kmh WSW 18.0 mph29.0 kmh 29.95 in1014.2 mb 0.00 in0.0 mm 0.00 in/hr0.0 mm/hr 0.00 in0.0 mm
11:15 AM 69.6°F20.9°C 65.2°F18.4°C 86% 8.9 mph WSW14.3 kmh WSW 12.0 mph19.3 kmh 29.95 in1014.2 mb 0.00 in0.0 mm 0.00 in/hr0.0 mm/hr 0.00 in0.0 mm
11:00 AM 69.7°F20.9°C 65.7°F18.7°C 87% 6.8 mph W10.9 kmh W 10.0 mph16.1 kmh 29.95 in1014.2 mb 0.00 in0.0 mm 0.00 in/hr0.0 mm/hr 0.00 in0.0 mm
10:45 AM 68.8°F20.4°C 65.1°F18.4°C 88% 10.0 mph SW16.1 kmh SW 16.0 mph25.7 kmh 29.95 in1014.2 mb 0.00 in0.0 mm 0.00 in/hr0.0 mm/hr 0.00 in0.0 mm
10:30 AM 69.0°F20.6°C 64.9°F18.3°C 87% 7.4 mph SSE11.9 kmh SSE 15.0 mph24.1 kmh 29.95 in1014.2 mb 0.00 in0.0 mm 0.00 in/hr0.0 mm/hr 0.00 in0.0 mm
10:15 AM 68.7°F20.4°C 64.7°F18.2°C 87% 10.7 mph WSW17.2 kmh WSW 13.0 mph20.9 kmh 29.95 in1014.2 mb 0.00 in0.0 mm 0.00 in/hr0.0 mm/hr 0.00 in0.0 mm
10:00 AM 68.2°F20.1°C 64.5°F18.1°C 88% 8.2 mph SW13.2 kmh SW 13.0 mph20.9 kmh 29.95 in1014.2 mb 0.00 in0.0 mm 0.00 in/hr0.0 mm/hr 0.00 in0.0 mm
09:45 AM 67.9°F19.9°C 64.2°F17.9°C 88% 7.1 mph SW11.4 kmh SW 14.0 mph22.5 kmh 29.95 in1014.2 mb 0.00 in0.0 mm 0.00 in/hr0.0 mm/hr 0.00 in0.0 mm
09:30 AM 68.0°F20.0°C 64.3°F17.9°C 88% 4.5 mph SW7.2 kmh SW 11.0 mph17.7 kmh 29.96 in1014.6 mb 0.00 in0.0 mm 0.00 in/hr0.0 mm/hr 0.00 in0.0 mm
09:15 AM 68.2°F20.1°C 64.2°F17.9°C 87% 5.1 mph SW8.2 kmh SW 10.0 mph16.1 kmh 29.96 in1014.6 mb 0.00 in0.0 mm 0.00 in/hr0.0 mm/hr 0.00 in0.0 mm
09:00 AM 68.0°F20.0°C 63.9°F17.7°C 87% 6.3 mph SW10.1 kmh SW 15.0 mph24.1 kmh 29.97 in1014.9 mb 0.00 in0.0 mm 0.00 in/hr0.0 mm/hr 0.00 in0.0 mm
08:45 AM 68.0°F20.0°C 63.9°F17.7°C 87% 4.8 mph WSW7.7 kmh WSW 9.0 mph14.5 kmh 29.97 in1014.9 mb 0.00 in0.0 mm 0.00 in/hr0.0 mm/hr 0.00 in0.0 mm
08:30 AM 67.5°F19.7°C 63.5°F17.5°C 87% 7.2 mph W11.6 kmh W 13.0 mph20.9 kmh 29.97 in1014.9 mb 0.00 in0.0 mm 0.00 in/hr0.0 mm/hr 0.00 in0.0 mm
08:15 AM 67.5°F19.7°C 63.5°F17.5°C 87% 3.5 mph WNW5.6 kmh WNW 10.0 mph16.1 kmh 29.97 in1014.9 mb 0.00 in0.0 mm 0.00 in/hr0.0 mm/hr 0.00 in0.0 mm
08:00 AM 67.5°F19.7°C 63.2°F17.3°C 86% 6.9 mph WSW11.1 kmh WSW 11.0 mph17.7 kmh 29.97 in1014.9 mb 0.00 in0.0 mm 0.00 in/hr0.0 mm/hr 0.00 in0.0 mm
07:45 AM 67.4°F19.7°C 63.1°F17.3°C 86% 5.1 mph W8.2 kmh W 10.0 mph16.1 kmh 29.97 in1014.9 mb 0.00 in0.0 mm 0.00 in/hr0.0 mm/hr 0.00 in0.0 mm
07:30 AM 67.2°F19.6°C 62.9°F17.2°C 86% 3.7 mph W6.0 kmh W 5.0 mph8.0 kmh 29.97 in1014.9 mb 0.00 in0.0 mm 0.00 in/hr0.0 mm/hr 0.00 in0.0 mm
07:15 AM 66.9°F19.4°C 62.9°F17.2°C 87% 1.8 mph WSW2.9 kmh WSW 3.0 mph4.8 kmh 29.97 in1014.9 mb 0.00 in0.0 mm 0.00 in/hr0.0 mm/hr 0.00 in0.0 mm
07:00 AM 66.5°F19.2°C 62.5°F16.9°C 87% 2.1 mph W3.4 kmh W 3.0 mph4.8 kmh 29.97 in1014.9 mb 0.00 in0.0 mm 0.00 in/hr0.0 mm/hr 0.00 in0.0 mm
06:45 AM 65.6°F18.7°C 62.2°F16.8°C 89% 3.1 mph W5.0 kmh W 5.0 mph8.0 kmh 29.97 in1014.9 mb 0.00 in0.0 mm 0.00 in/hr0.0 mm/hr 0.00 in0.0 mm
06:30 AM 65.2°F18.4°C 61.9°F16.6°C 89% 1.5 mph WNW2.4 kmh WNW 2.0 mph3.2 kmh 29.97 in1014.9 mb 0.00 in0.0 mm 0.00 in/hr0.0 mm/hr 0.00 in0.0 mm
06:15 AM 64.6°F18.1°C 61.9°F16.6°C 91% 1.2 mph WSW1.9 kmh WSW 2.0 mph3.2 kmh 29.97 in1014.9 mb 0.00 in0.0 mm 0.00 in/hr0.0 mm/hr 0.00 in0.0 mm
06:00 AM 64.1°F17.8°C 61.4°F16.3°C 91% 0.5 mph NW0.8 kmh NW 1.0 mph1.6 kmh 29.97 in1014.9 mb 0.00 in0.0 mm 0.00 in/hr0.0 mm/hr 0.00 in0.0 mm
05:45 AM 63.7°F17.6°C 61.4°F16.3°C 92% Calm Calm 1.0 mph1.6 kmh 29.98 in1015.2 mb 0.00 in0.0 mm 0.00 in/hr0.0 mm/hr 0.00 in0.0 mm
05:30 AM 63.5°F17.5°C 61.1°F16.2°C 92% 2.3 mph WSW3.7 kmh WSW 4.0 mph6.4 kmh 29.98 in1015.2 mb 0.00 in0.0 mm 0.00 in/hr0.0 mm/hr 0.00 in0.0 mm
05:15 AM 63.5°F17.5°C 61.1°F16.2°C 92% 0.2 mph WSW0.3 kmh WSW 1.0 mph1.6 kmh 29.98 in1015.2 mb 0.00 in0.0 mm 0.00 in/hr0.0 mm/hr 0.00 in0.0 mm
05:00 AM 63.4°F17.4°C 61.0°F16.1°C 92% 2.0 mph SW3.2 kmh SW 5.0 mph8.0 kmh 29.98 in1015.2 mb 0.00 in0.0 mm 0.00 in/hr0.0 mm/hr 0.00 in0.0 mm
04:45 AM 63.3°F17.4°C 60.9°F16.1°C 92% 2.5 mph WSW4.0 kmh WSW 4.0 mph6.4 kmh 29.97 in1014.9 mb 0.00 in0.0 mm 0.00 in/hr0.0 mm/hr 0.00 in0.0 mm
04:30 AM 63.2°F17.3°C 60.8°F16.0°C 92% 1.7 mph WSW2.7 kmh WSW 4.0 mph6.4 kmh 29.97 in1014.9 mb 0.00 in0.0 mm 0.00 in/hr0.0 mm/hr 0.00 in0.0 mm
04:15 AM 63.2°F17.3°C 60.8°F16.0°C 92% 2.3 mph WSW3.7 kmh WSW 8.0 mph12.9 kmh 29.97 in1014.9 mb 0.00 in0.0 mm 0.00 in/hr0.0 mm/hr 0.00 in0.0 mm
04:00 AM 63.3°F17.4°C 60.9°F16.1°C 92% 0.8 mph SW1.3 kmh SW 3.0 mph4.8 kmh 29.96 in1014.6 mb 0.00 in0.0 mm 0.00 in/hr0.0 mm/hr 0.00 in0.0 mm
03:45 AM 63.5°F17.5°C 61.1°F16.2°C 92% 2.0 mph W3.2 kmh W 7.0 mph11.3 kmh 29.96 in1014.6 mb 0.00 in0.0 mm 0.00 in/hr0.0 mm/hr 0.00 in0.0 mm
03:30 AM 63.6°F17.6°C 61.2°F16.2°C 92% 2.0 mph W3.2 kmh W 3.0 mph4.8 kmh 29.96 in1014.6 mb 0.00 in0.0 mm 0.00 in/hr0.0 mm/hr 0.00 in0.0 mm
03:15 AM 63.6°F17.6°C 61.2°F16.2°C 92% 0.3 mph WSW0.5 kmh WSW 1.0 mph1.6 kmh 29.96 in1014.6 mb 0.00 in0.0 mm 0.00 in/hr0.0 mm/hr 0.00 in0.0 mm
03:00 AM 63.8°F17.7°C 61.4°F16.3°C 92% 1.7 mph WSW2.7 kmh WSW 3.0 mph4.8 kmh 29.97 in1014.9 mb 0.00 in0.0 mm 0.00 in/hr0.0 mm/hr 0.00 in0.0 mm
02:45 AM 63.8°F17.7°C 61.7°F16.5°C 93% 2.5 mph WSW4.0 kmh WSW 2.0 mph3.2 kmh 29.98 in1015.2 mb 0.00 in0.0 mm 0.00 in/hr0.0 mm/hr 0.00 in0.0 mm
02:30 AM 63.8°F17.7°C 61.7°F16.5°C 93% 1.2 mph WSW1.9 kmh WSW 5.0 mph8.0 kmh 29.98 in1015.2 mb 0.00 in0.0 mm 0.00 in/hr0.0 mm/hr 0.00 in0.0 mm
02:15 AM 63.7°F17.6°C 61.6°F16.4°C 93% 0.7 mph WSW1.1 kmh WSW 2.0 mph3.2 kmh 29.99 in1015.6 mb 0.00 in0.0 mm 0.00 in/hr0.0 mm/hr 0.00 in0.0 mm
02:00 AM 63.7°F17.6°C 61.6°F16.4°C 93% 2.3 mph SW3.7 kmh SW 4.0 mph6.4 kmh 29.99 in1015.6 mb 0.00 in0.0 mm 0.00 in/hr0.0 mm/hr 0.00 in0.0 mm
01:45 AM 63.7°F17.6°C 61.6°F16.4°C 93% 1.2 mph W1.9 kmh W 6.0 mph9.7 kmh 30.00 in1015.9 mb 0.00 in0.0 mm 0.00 in/hr0.0 mm/hr 0.00 in0.0 mm
01:30 AM 63.7°F17.6°C 61.9°F16.6°C 94% 1.5 mph WSW2.4 kmh WSW 5.0 mph8.0 kmh 30.01 in1016.3 mb 0.00 in0.0 mm 0.00 in/hr0.0 mm/hr 0.00 in0.0 mm
01:15 AM 63.6°F17.6°C 61.8°F16.6°C 94% 2.7 mph SW4.3 kmh SW 5.0 mph8.0 kmh 30.01 in1016.3 mb 0.00 in0.0 mm 0.00 in/hr0.0 mm/hr 0.00 in0.0 mm
01:00 AM 63.5°F17.5°C 61.8°F16.6°C 94% 1.8 mph WSW2.9 kmh WSW 3.0 mph4.8 kmh 30.02 in1016.6 mb 0.00 in0.0 mm 0.00 in/hr0.0 mm/hr 0.00 in0.0 mm
12:45 AM 63.5°F17.5°C 61.8°F16.6°C 94% 1.4 mph WSW2.3 kmh WSW 5.0 mph8.0 kmh 30.02 in1016.6 mb 0.00 in0.0 mm 0.00 in/hr0.0 mm/hr 0.00 in0.0 mm
12:30 AM 63.6°F17.6°C 61.8°F16.6°C 94% 2.8 mph WSW4.5 kmh WSW 6.0 mph9.7 kmh 30.02 in1016.6 mb 0.00 in0.0 mm 0.00 in/hr0.0 mm/hr 0.00 in0.0 mm
12:15 AM 63.7°F17.6°C 61.9°F16.6°C 94% 1.7 mph WSW2.7 kmh WSW 7.0 mph11.3 kmh 30.03 in1016.9 mb 0.00 in0.0 mm 0.00 in/hr0.0 mm/hr 0.00 in0.0 mm
12:00 AM 63.9°F17.7°C 62.1°F16.7°C 94% 1.8 mph WSW2.9 kmh WSW 6.0 mph9.7 kmh 30.03 in1016.9 mb 0.00 in0.0 mm 0.00 in/hr0.0 mm/hr 0.00 in0.0 mm